createdAt,value
2019-03-27T00:00:12.444Z,4.58
2019-03-27T00:02:41.194Z,5.33
2019-03-27T00:05:09.935Z,5.80
2019-03-27T00:07:38.664Z,5.08
2019-03-27T00:10:08.945Z,6.90
2019-03-27T00:12:38.246Z,11.17
2019-03-27T00:15:13.485Z,4.30
2019-03-27T00:17:41.397Z,3.60
2019-03-27T00:20:10.237Z,3.15
2019-03-27T00:22:39.338Z,6.40
2019-03-27T00:25:08.890Z,4.03
2019-03-27T00:27:37.619Z,4.15
2019-03-27T00:30:07.909Z,5.03
2019-03-27T00:32:36.713Z,3.07
2019-03-27T00:35:06.720Z,6.28
2019-03-27T00:37:35.659Z,5.22
2019-03-27T00:40:06.100Z,5.17
2019-03-27T00:42:34.970Z,6.75
2019-03-27T00:45:04.781Z,4.50
2019-03-27T00:47:33.532Z,3.65
2019-03-27T00:50:02.272Z,13.72
2019-03-27T00:52:31.123Z,2.58
2019-03-27T00:54:59.913Z,8.68
2019-03-27T00:57:28.614Z,3.67
2019-03-27T00:59:57.333Z,5.30
2019-03-27T01:02:26.134Z,7.25
2019-03-27T01:04:54.763Z,4.65
2019-03-27T01:07:23.534Z,4.15
2019-03-27T01:09:52.366Z,4.05
2019-03-27T01:12:21.146Z,5.08
2019-03-27T01:14:49.885Z,9.13
2019-03-27T01:17:18.656Z,5.20
2019-03-27T01:19:47.357Z,2.33
2019-03-27T01:22:16.116Z,9.48
2019-03-27T01:24:46.423Z,4.65
2019-03-27T01:27:16.697Z,9.20
2019-03-27T01:29:45.468Z,4.30
2019-03-27T01:32:14.398Z,12.28
2019-03-27T01:34:43.108Z,11.20
2019-03-27T01:37:11.858Z,5.45
2019-03-27T01:39:40.589Z,7.83
2019-03-27T01:42:09.530Z,8.43
2019-03-27T01:44:38.249Z,9.55
2019-03-27T01:47:06.960Z,9.38
2019-03-27T01:49:35.780Z,6.22
2019-03-27T01:52:07.855Z,9.55
2019-03-27T01:54:35.018Z,7.28
2019-03-27T01:57:03.721Z,7.33
2019-03-27T01:59:32.702Z,7.83
2019-03-27T02:02:01.442Z,4.80
2019-03-27T02:04:30.203Z,6.05
2019-03-27T02:06:58.823Z,10.80
2019-03-27T02:09:27.627Z,11.15
2019-03-27T02:11:56.334Z,6.78
2019-03-27T02:14:25.541Z,6.50
2019-03-27T02:16:54.246Z,5.75
2019-03-27T02:19:22.945Z,6.50
2019-03-27T02:21:51.668Z,7.70
2019-03-27T02:24:20.736Z,4.90
2019-03-27T02:26:49.753Z,7.90
2019-03-27T02:29:18.496Z,8.10
2019-03-27T02:31:47.417Z,8.35
2019-03-27T02:34:18.438Z,7.12
2019-03-27T02:36:47.240Z,6.75
2019-03-27T02:39:15.989Z,7.50
2019-03-27T02:41:45.120Z,6.10
2019-03-27T02:44:13.869Z,6.70
2019-03-27T02:46:42.601Z,9.80
2019-03-27T02:49:11.399Z,8.13
2019-03-27T02:51:40.064Z,7.95
2019-03-27T02:54:08.851Z,11.22
2019-03-27T02:56:37.635Z,7.62
2019-03-27T02:59:06.266Z,10.05
2019-03-27T03:01:35.141Z,4.87
2019-03-27T03:04:03.906Z,10.08
2019-03-27T03:06:32.749Z,7.83
2019-03-27T03:09:01.631Z,8.18
2019-03-27T03:11:30.708Z,12.37
2019-03-27T03:13:59.589Z,9.80
2019-03-27T03:16:41.238Z,12.58
2019-03-27T03:18:58.859Z,9.50
2019-03-27T03:21:27.728Z,13.53
2019-03-27T03:23:56.647Z,11.50
2019-03-27T03:26:25.316Z,13.72
2019-03-27T03:28:54.081Z,12.35
2019-03-27T03:31:30.808Z,14.95
2019-03-27T03:33:59.607Z,19.32
2019-03-27T03:36:28.458Z,23.05
2019-03-27T03:38:57.205Z,15.45
2019-03-27T03:41:26.174Z,21.25
2019-03-27T03:43:54.970Z,12.23
2019-03-27T03:46:23.703Z,14.33
2019-03-27T03:48:52.440Z,30.95
2019-03-27T03:51:21.333Z,14.30
2019-03-27T03:53:50.162Z,12.18
2019-03-27T03:56:19.002Z,11.12
2019-03-27T03:58:47.874Z,8.38
2019-03-27T04:01:16.573Z,7.80
2019-03-27T04:03:45.322Z,8.75
2019-03-27T04:06:15.662Z,7.10
2019-03-27T04:08:44.372Z,7.90
2019-03-27T04:11:13.125Z,10.03
2019-03-27T04:13:41.924Z,12.18
2019-03-27T04:16:10.964Z,12.78
2019-03-27T04:18:39.984Z,12.55
2019-03-27T04:21:08.818Z,8.18
2019-03-27T04:23:37.744Z,7.47
2019-03-27T04:26:10.125Z,6.42
2019-03-27T04:28:37.027Z,6.65
2019-03-27T04:31:05.911Z,9.30
2019-03-27T04:33:34.678Z,13.83
2019-03-27T04:36:03.427Z,13.13
2019-03-27T04:38:32.264Z,6.45
2019-03-27T04:41:01.113Z,8.33
2019-03-27T04:43:29.851Z,9.40
2019-03-27T04:45:58.693Z,14.55
2019-03-27T04:48:27.428Z,9.85
2019-03-27T04:50:56.209Z,9.43
2019-03-27T04:53:25.002Z,10.13
2019-03-27T04:55:53.750Z,8.88
2019-03-27T04:58:22.499Z,9.20
2019-03-27T05:00:51.320Z,7.55
2019-03-27T05:03:20.056Z,8.15
2019-03-27T05:05:49.031Z,12.03
2019-03-27T05:08:19.305Z,8.18
2019-03-27T05:10:48.034Z,11.40
2019-03-27T05:13:16.824Z,9.58
2019-03-27T05:15:45.525Z,9.45
2019-03-27T05:18:14.294Z,10.88
2019-03-27T05:20:44.596Z,6.78
2019-03-27T05:23:13.294Z,12.63
2019-03-27T05:25:42.104Z,11.15
2019-03-27T05:28:10.870Z,10.23
2019-03-27T05:30:39.581Z,11.03
2019-03-27T05:33:08.365Z,9.18
2019-03-27T05:35:37.326Z,12.15
2019-03-27T05:38:06.066Z,11.00
2019-03-27T05:40:35.826Z,11.33
2019-03-27T05:43:04.616Z,15.32
2019-03-27T05:45:34.518Z,11.80
2019-03-27T05:48:03.322Z,14.10
2019-03-27T05:50:32.024Z,10.72
2019-03-27T05:53:00.799Z,17.80
2019-03-27T05:55:29.722Z,11.15
2019-03-27T05:57:58.492Z,12.55
2019-03-27T06:00:27.922Z,13.43
2019-03-27T06:02:57.170Z,11.03
2019-03-27T06:05:26.213Z,13.43
2019-03-27T06:07:54.991Z,12.30
2019-03-27T06:10:23.903Z,12.45
2019-03-27T06:12:52.641Z,17.25
2019-03-27T06:15:21.375Z,22.35
2019-03-27T06:17:50.273Z,11.00
2019-03-27T06:20:19.043Z,11.75
2019-03-27T06:22:47.813Z,11.50
2019-03-27T06:25:17.014Z,11.68
2019-03-27T06:27:45.802Z,12.37
2019-03-27T06:30:14.625Z,10.25
2019-03-27T06:32:43.671Z,11.38
2019-03-27T06:35:12.447Z,11.38
2019-03-27T06:37:41.295Z,7.83
2019-03-27T06:40:10.076Z,14.58
2019-03-27T06:42:38.890Z,6.83
2019-03-27T06:45:07.975Z,13.72
2019-03-27T06:47:37.207Z,18.23
2019-03-27T06:50:06.979Z,7.47
2019-03-27T06:52:36.048Z,11.22
2019-03-27T06:55:06.901Z,8.38
2019-03-27T06:57:35.824Z,10.00
2019-03-27T07:00:09.032Z,9.60
2019-03-27T07:02:37.741Z,6.90
2019-03-27T07:05:06.761Z,14.20
2019-03-27T07:07:35.491Z,15.45
2019-03-27T07:10:05.803Z,9.03
2019-03-27T07:12:34.643Z,17.27
2019-03-27T07:15:03.482Z,13.08
2019-03-27T07:17:32.282Z,30.43
2019-03-27T07:20:01.008Z,10.05
2019-03-27T07:22:29.934Z,15.08
2019-03-27T07:24:58.705Z,16.50
2019-03-27T07:27:29.082Z,8.18
2019-03-27T07:29:57.841Z,8.77
2019-03-27T07:32:27.445Z,4.05
2019-03-27T07:34:56.615Z,7.62
2019-03-27T07:37:25.477Z,6.55
2019-03-27T07:39:54.257Z,7.67
2019-03-27T07:42:23.374Z,9.73
2019-03-27T07:44:52.156Z,8.50
2019-03-27T07:47:21.013Z,9.13
2019-03-27T07:49:50.066Z,8.08
2019-03-27T07:52:18.947Z,6.15
2019-03-27T07:54:47.710Z,11.65
2019-03-27T07:57:16.609Z,5.22
2019-03-27T07:59:45.539Z,7.05
2019-03-27T08:02:14.456Z,5.85
2019-03-27T08:04:43.308Z,6.60
2019-03-27T08:07:12.060Z,7.42
2019-03-27T08:09:40.763Z,6.25
2019-03-27T08:12:09.582Z,5.47
2019-03-27T08:14:38.361Z,3.90
2019-03-27T08:17:07.311Z,3.95
2019-03-27T08:19:36.002Z,6.05
2019-03-27T08:22:07.866Z,5.65
2019-03-27T08:24:36.601Z,15.68
2019-03-27T08:27:05.553Z,5.42
2019-03-27T08:29:34.313Z,8.78
2019-03-27T08:32:03.090Z,9.13
2019-03-27T08:34:32.105Z,6.87
2019-03-27T08:37:00.974Z,5.35
2019-03-27T08:39:29.721Z,6.75
2019-03-27T08:41:58.518Z,6.33
2019-03-27T08:44:27.396Z,5.92
2019-03-27T08:46:56.189Z,6.97
2019-03-27T08:49:24.937Z,3.52
2019-03-27T08:51:53.779Z,4.42
2019-03-27T08:54:22.721Z,5.67
2019-03-27T08:56:51.467Z,10.10
2019-03-27T08:59:20.148Z,5.50
2019-03-27T09:01:48.921Z,6.05
2019-03-27T09:04:17.880Z,9.35
2019-03-27T09:06:47.211Z,6.72
2019-03-27T09:09:16.000Z,3.90
2019-03-27T09:11:44.925Z,13.88
2019-03-27T09:14:13.778Z,6.28
2019-03-27T09:16:42.672Z,15.08
2019-03-27T09:19:11.741Z,6.65
2019-03-27T09:21:40.551Z,5.67
2019-03-27T09:24:09.227Z,4.37
2019-03-27T09:26:38.036Z,5.92
2019-03-27T09:29:08.373Z,4.78
2019-03-27T09:31:44.889Z,3.27
2019-03-27T09:34:07.815Z,4.50
2019-03-27T09:36:36.765Z,4.90
2019-03-27T09:39:07.954Z,3.87
2019-03-27T09:41:36.738Z,9.70
2019-03-27T09:44:05.591Z,4.47
2019-03-27T09:46:34.448Z,7.25
2019-03-27T09:49:03.186Z,3.05
2019-03-27T09:51:31.893Z,6.05
2019-03-27T09:54:00.886Z,10.38
2019-03-27T09:56:29.846Z,6.12
2019-03-27T09:58:59.217Z,2.90
2019-03-27T10:01:28.007Z,7.30
2019-03-27T10:03:56.759Z,7.15
2019-03-27T10:06:25.600Z,9.85
2019-03-27T10:08:54.329Z,4.65
2019-03-27T10:11:23.912Z,6.87
2019-03-27T10:13:53.000Z,5.35
2019-03-27T10:16:22.079Z,3.30
2019-03-27T10:18:50.883Z,8.93
2019-03-27T10:21:19.907Z,3.58
2019-03-27T10:23:48.815Z,7.80
2019-03-27T10:26:17.915Z,5.67
2019-03-27T10:28:47.014Z,4.80
2019-03-27T10:31:17.567Z,2.70
2019-03-27T10:33:46.603Z,5.10
2019-03-27T10:36:17.528Z,5.55
2019-03-27T10:38:46.616Z,6.78
2019-03-27T10:41:16.529Z,3.47
2019-03-27T10:43:46.265Z,4.72
2019-03-27T10:46:15.195Z,4.47
2019-03-27T10:48:52.568Z,6.35
2019-03-27T10:51:15.762Z,5.28
2019-03-27T10:53:46.095Z,5.92
2019-03-27T10:56:15.445Z,6.10
2019-03-27T10:58:44.351Z,4.58
2019-03-27T11:01:13.798Z,5.80
2019-03-27T11:03:43.107Z,8.30
2019-03-27T11:06:11.878Z,5.85
2019-03-27T11:08:40.732Z,5.45
2019-03-27T11:11:10.008Z,2.60
2019-03-27T11:13:39.053Z,6.08
2019-03-27T11:16:07.804Z,9.15
2019-03-27T11:18:36.727Z,9.93
2019-03-27T11:21:08.842Z,10.10
2019-03-27T11:23:37.936Z,10.78
2019-03-27T11:26:07.508Z,6.75
2019-03-27T11:28:36.594Z,7.28
2019-03-27T11:31:05.985Z,4.80
2019-03-27T11:33:35.004Z,4.35
2019-03-27T11:36:03.863Z,5.60
2019-03-27T11:38:33.699Z,8.35
2019-03-27T11:41:02.698Z,3.42
2019-03-27T11:43:33.230Z,5.85
2019-03-27T11:46:04.749Z,5.97
2019-03-27T11:48:34.196Z,11.70
2019-03-27T11:51:03.057Z,5.53
2019-03-27T11:53:32.048Z,6.47
2019-03-27T11:56:03.325Z,10.72
2019-03-27T11:58:31.655Z,9.18
2019-03-27T12:01:01.775Z,5.75
2019-03-27T12:03:30.683Z,6.50
2019-03-27T12:05:59.541Z,12.20
2019-03-27T12:08:28.617Z,3.92
2019-03-27T12:10:57.528Z,12.13
2019-03-27T12:13:26.379Z,6.72
2019-03-27T12:15:55.244Z,4.53
2019-03-27T12:18:23.977Z,4.83
2019-03-27T12:20:59.431Z,8.43
2019-03-27T12:23:23.833Z,4.95
2019-03-27T12:25:55.160Z,9.45
2019-03-27T12:28:23.222Z,4.28
2019-03-27T12:30:52.313Z,5.33
2019-03-27T12:33:21.145Z,5.85
2019-03-27T12:35:49.985Z,5.03
2019-03-27T12:38:19.345Z,7.22
2019-03-27T12:40:48.328Z,6.08
2019-03-27T12:43:17.157Z,10.98
2019-03-27T12:45:47.600Z,16.10
2019-03-27T12:48:17.455Z,9.50
2019-03-27T12:50:46.285Z,7.15
2019-03-27T12:53:15.208Z,7.37
2019-03-27T12:55:43.965Z,5.12
2019-03-27T12:58:13.458Z,11.00
2019-03-27T13:00:44.098Z,8.45
2019-03-27T13:03:13.067Z,5.28
2019-03-27T13:05:41.878Z,6.53
2019-03-27T13:08:10.772Z,10.45
2019-03-27T13:10:39.628Z,10.60
2019-03-27T13:13:08.661Z,11.22
2019-03-27T13:15:37.808Z,11.40
2019-03-27T13:18:10.288Z,11.83
2019-03-27T13:20:39.285Z,13.95
2019-03-27T13:23:08.164Z,7.62
2019-03-27T13:25:37.161Z,7.60
2019-03-27T13:28:06.298Z,7.40
2019-03-27T13:30:35.628Z,7.30
2019-03-27T13:33:04.598Z,8.58
2019-03-27T13:35:34.910Z,9.05
2019-03-27T13:38:03.868Z,10.25
2019-03-27T13:40:33.275Z,5.97
2019-03-27T13:43:03.576Z,7.22
2019-03-27T13:45:33.024Z,10.08
2019-03-27T13:48:02.138Z,6.40
2019-03-27T13:50:34.338Z,7.97
2019-03-27T13:53:03.399Z,10.80
2019-03-27T13:55:34.962Z,8.13
2019-03-27T13:58:03.051Z,8.90
2019-03-27T14:00:32.338Z,11.93
2019-03-27T14:03:01.419Z,7.87
2019-03-27T14:05:30.425Z,6.58
2019-03-27T14:08:10.055Z,7.65
2019-03-27T14:10:39.475Z,6.50
2019-03-27T14:13:13.817Z,7.72
2019-03-27T14:15:43.131Z,12.53
2019-03-27T14:18:12.070Z,7.53
2019-03-27T14:20:41.176Z,20.90
2019-03-27T14:23:11.534Z,21.73
2019-03-27T14:25:43.923Z,6.50
2019-03-27T14:28:13.337Z,6.45
2019-03-27T14:30:50.760Z,8.88
2019-03-27T14:33:20.222Z,6.28
2019-03-27T14:35:49.230Z,6.33
2019-03-27T14:38:21.184Z,28.38
2019-03-27T14:40:53.025Z,8.55
2019-03-27T14:43:41.834Z,4.42
2019-03-27T14:46:05.770Z,6.97
2019-03-27T14:48:34.635Z,4.40
2019-03-27T14:51:06.453Z,6.00
2019-03-27T14:53:35.338Z,6.20
2019-03-27T14:56:21.394Z,7.72
2019-03-27T14:58:44.439Z,1.92
2019-03-27T15:01:13.585Z,4.05
2019-03-27T15:03:42.599Z,6.12
2019-03-27T15:06:21.639Z,6.78
2019-03-27T15:08:50.507Z,6.33
2019-03-27T15:11:19.441Z,8.40
2019-03-27T15:13:48.611Z,7.65
2019-03-27T15:16:17.733Z,6.22
2019-03-27T15:18:46.816Z,4.50
2019-03-27T15:21:26.378Z,5.30
2019-03-27T15:23:56.885Z,5.25
2019-03-27T15:26:25.929Z,3.77
2019-03-27T15:29:01.018Z,6.05
2019-03-27T15:31:43.811Z,6.15
2019-03-27T15:34:12.920Z,5.17
2019-03-27T15:36:42.093Z,5.17
2019-03-27T15:39:11.575Z,8.13
2019-03-27T15:41:41.156Z,13.15
2019-03-27T15:44:10.687Z,12.03
2019-03-27T15:46:39.707Z,19.60
2019-03-27T15:49:08.684Z,18.92
2019-03-27T15:51:39.314Z,8.58
2019-03-27T15:54:08.461Z,17.25
2019-03-27T15:56:38.655Z,14.98
2019-03-27T15:59:07.614Z,15.43
2019-03-27T16:01:36.574Z,14.55
2019-03-27T16:04:05.819Z,18.87
2019-03-27T16:06:34.864Z,14.30
2019-03-27T16:09:04.957Z,12.00
2019-03-27T16:11:33.745Z,10.03
2019-03-27T16:14:02.739Z,11.00
2019-03-27T16:16:31.761Z,14.30
2019-03-27T16:19:00.757Z,12.68
2019-03-27T16:21:29.861Z,18.23
2019-03-27T16:24:06.391Z,16.82
2019-03-27T16:26:30.745Z,17.70
2019-03-27T16:28:59.823Z,15.15
2019-03-27T16:31:28.822Z,21.07
2019-03-27T16:33:58.997Z,11.50
2019-03-27T16:36:27.947Z,13.38
2019-03-27T16:38:56.935Z,13.22
2019-03-27T16:41:26.825Z,16.30
2019-03-27T16:43:55.609Z,21.40
2019-03-27T16:46:25.400Z,18.02
2019-03-27T16:48:54.245Z,20.50
2019-03-27T16:51:23.125Z,14.23
2019-03-27T16:53:52.039Z,22.02
2019-03-27T16:56:20.743Z,21.12
2019-03-27T16:58:49.555Z,17.65
2019-03-27T17:01:18.364Z,23.45
2019-03-27T17:03:47.208Z,30.15
2019-03-27T17:06:15.886Z,29.32
2019-03-27T17:08:46.186Z,33.20
2019-03-27T17:11:15.159Z,28.60
2019-03-27T17:13:44.137Z,34.80
2019-03-27T17:16:13.068Z,29.42
2019-03-27T17:18:42.010Z,35.70
2019-03-27T17:21:11.268Z,25.02
2019-03-27T17:23:40.189Z,22.30
2019-03-27T17:26:09.296Z,21.73
2019-03-27T17:28:38.086Z,28.73
2019-03-27T17:31:07.336Z,21.55
2019-03-27T17:33:36.259Z,18.65
2019-03-27T17:36:05.493Z,19.62
2019-03-27T17:38:34.367Z,22.80
2019-03-27T17:41:03.115Z,11.78
2019-03-27T17:43:31.875Z,13.25
2019-03-27T17:46:01.447Z,19.82
2019-03-27T17:48:30.279Z,13.05
2019-03-27T17:50:59.236Z,24.12
2019-03-27T17:53:31.841Z,13.35
2019-03-27T17:55:58.591Z,17.87
2019-03-27T17:58:27.526Z,12.78
2019-03-27T18:00:57.526Z,20.12
2019-03-27T18:03:26.486Z,29.50
2019-03-27T18:05:55.136Z,14.55
2019-03-27T18:08:23.986Z,16.48
2019-03-27T18:10:52.789Z,19.55
2019-03-27T18:13:21.676Z,18.25
2019-03-27T18:15:50.468Z,24.87
2019-03-27T18:18:19.819Z,20.85
2019-03-27T18:20:48.567Z,13.38
2019-03-27T18:23:17.413Z,16.42
2019-03-27T18:25:47.551Z,17.17
2019-03-27T18:28:16.331Z,20.62
2019-03-27T18:30:45.168Z,24.23
2019-03-27T18:33:13.901Z,18.87
2019-03-27T18:35:42.860Z,22.17
2019-03-27T18:38:11.709Z,27.20
2019-03-27T18:40:40.580Z,26.73
2019-03-27T18:43:12.369Z,19.48
2019-03-27T18:45:41.213Z,16.25
2019-03-27T18:48:10.111Z,17.80
2019-03-27T18:50:38.994Z,20.82
2019-03-27T18:53:07.739Z,24.45
2019-03-27T18:55:36.510Z,21.02
2019-03-27T18:58:05.325Z,22.90
2019-03-27T19:00:34.346Z,25.75
2019-03-27T19:03:03.167Z,28.70
2019-03-27T19:05:32.034Z,23.02
2019-03-27T19:08:01.104Z,33.18
2019-03-27T19:10:29.897Z,28.77
2019-03-27T19:13:01.625Z,27.00
2019-03-27T19:15:30.888Z,26.15
2019-03-27T19:18:01.920Z,22.02
2019-03-27T19:20:30.794Z,27.40
2019-03-27T19:22:59.577Z,26.00
2019-03-27T19:25:28.396Z,30.70
2019-03-27T19:27:58.858Z,27.13
2019-03-27T19:30:27.719Z,29.67
2019-03-27T19:32:56.512Z,30.65
2019-03-27T19:35:25.398Z,31.93
2019-03-27T19:37:54.201Z,28.40
2019-03-27T19:40:22.979Z,30.57
2019-03-27T19:42:51.961Z,34.55
2019-03-27T19:45:21.269Z,30.70
2019-03-27T19:47:50.124Z,34.00
2019-03-27T19:50:18.860Z,33.83
2019-03-27T19:52:47.622Z,33.95
2019-03-27T19:55:17.372Z,37.35
2019-03-27T19:57:46.134Z,39.50
2019-03-27T20:00:15.111Z,36.68
2019-03-27T20:02:43.873Z,30.52
2019-03-27T20:05:12.624Z,35.50
2019-03-27T20:07:41.594Z,34.18
2019-03-27T20:10:11.235Z,37.48
2019-03-27T20:12:40.105Z,32.88
2019-03-27T20:15:12.212Z,31.12
2019-03-27T20:17:39.665Z,39.30
2019-03-27T20:20:08.825Z,32.53
2019-03-27T20:22:38.335Z,38.55
2019-03-27T20:25:08.907Z,30.62
2019-03-27T20:27:37.826Z,36.50
2019-03-27T20:30:10.121Z,28.77
2019-03-27T20:32:38.949Z,33.20
2019-03-27T20:35:08.318Z,34.90
2019-03-27T20:37:38.352Z,36.80
2019-03-27T20:40:09.260Z,40.03
2019-03-27T20:42:38.133Z,34.80
2019-03-27T20:45:07.434Z,29.30
2019-03-27T20:47:36.322Z,38.88
2019-03-27T20:50:06.066Z,29.05
2019-03-27T20:52:35.183Z,26.42
2019-03-27T20:55:04.511Z,22.67
2019-03-27T20:57:34.811Z,21.52
2019-03-27T21:00:04.702Z,23.30
2019-03-27T21:02:33.453Z,25.50
2019-03-27T21:05:02.177Z,23.40
2019-03-27T21:07:31.509Z,25.88
2019-03-27T21:10:01.849Z,17.62
2019-03-27T21:12:30.797Z,19.95
2019-03-27T21:14:59.713Z,24.15
2019-03-27T21:17:28.489Z,21.07
2019-03-27T21:19:57.205Z,22.45
2019-03-27T21:22:26.146Z,32.83
2019-03-27T21:25:07.652Z,18.82
2019-03-27T21:27:25.486Z,18.80
2019-03-27T21:29:54.478Z,21.57
2019-03-27T21:32:23.207Z,16.73
2019-03-27T21:34:52.017Z,26.25
2019-03-27T21:37:21.179Z,23.47
2019-03-27T21:39:49.937Z,26.37
2019-03-27T21:42:18.718Z,22.45
2019-03-27T21:44:49.463Z,23.02
2019-03-27T21:47:18.212Z,26.73
2019-03-27T21:49:47.030Z,18.92
2019-03-27T21:52:16.001Z,24.43
2019-03-27T21:54:44.790Z,26.10
2019-03-27T21:57:13.563Z,28.90
2019-03-27T21:59:42.435Z,26.45
2019-03-27T22:02:11.553Z,25.08
2019-03-27T22:04:40.301Z,20.48
2019-03-27T22:07:09.115Z,22.75
2019-03-27T22:09:37.857Z,22.07
2019-03-27T22:12:06.558Z,19.92
2019-03-27T22:14:35.550Z,30.05
2019-03-27T22:17:04.251Z,22.80
2019-03-27T22:19:32.994Z,16.57
2019-03-27T22:22:01.764Z,24.32
2019-03-27T22:24:30.494Z,22.42
2019-03-27T22:26:59.225Z,20.62
2019-03-27T22:29:28.119Z,27.22
2019-03-27T22:32:00.776Z,27.58
2019-03-27T22:34:29.717Z,28.23
2019-03-27T22:36:59.898Z,25.95
2019-03-27T22:39:28.657Z,23.87
2019-03-27T22:42:00.115Z,18.65
2019-03-27T22:44:29.162Z,25.30
2019-03-27T22:46:57.871Z,26.80
2019-03-27T22:49:26.568Z,24.57
2019-03-27T22:51:55.400Z,18.75
2019-03-27T22:54:24.154Z,22.77
2019-03-27T22:56:52.849Z,25.95
2019-03-27T22:59:21.640Z,20.48
2019-03-27T23:01:50.600Z,23.38
2019-03-27T23:04:19.314Z,18.15
2019-03-27T23:06:48.072Z,25.65
2019-03-27T23:09:16.842Z,20.23
2019-03-27T23:11:45.576Z,21.12
2019-03-27T23:14:14.300Z,17.42
2019-03-27T23:16:43.007Z,22.13
2019-03-27T23:19:11.981Z,19.85
2019-03-27T23:21:40.735Z,22.25
2019-03-27T23:24:09.434Z,29.95
2019-03-27T23:26:38.167Z,25.57
2019-03-27T23:29:06.845Z,25.10
2019-03-27T23:31:35.549Z,23.70
2019-03-27T23:34:04.318Z,15.15
2019-03-27T23:36:33.068Z,24.37
2019-03-27T23:39:01.738Z,25.70
2019-03-27T23:41:30.786Z,24.20
2019-03-27T23:43:59.457Z,24.60
2019-03-27T23:46:28.167Z,23.87
2019-03-27T23:48:57.051Z,17.65
2019-03-27T23:51:25.769Z,22.42
2019-03-27T23:53:54.921Z,18.95
2019-03-27T23:56:23.779Z,17.50
2019-03-27T23:58:53.060Z,25.43
